createdAt,value
2022-08-20T00:02:14.970Z,10.82
2022-08-20T00:04:42.892Z,11.23
2022-08-20T00:07:11.016Z,13.05
2022-08-20T00:09:38.885Z,17.52
2022-08-20T00:12:08.241Z,10.73
2022-08-20T00:14:37.326Z,11.38
2022-08-20T00:17:06.904Z,17.77
2022-08-20T00:19:34.933Z,15.38
2022-08-20T00:22:02.753Z,13.25
2022-08-20T00:24:30.690Z,16.45
2022-08-20T00:26:58.556Z,13.00
2022-08-20T00:29:26.889Z,24.08
2022-08-20T00:31:54.586Z,11.05
2022-08-20T00:34:22.450Z,13.18
2022-08-20T00:36:50.418Z,12.48
2022-08-20T00:39:18.143Z,14.68
2022-08-20T00:41:45.998Z,13.68
2022-08-20T00:44:22.121Z,13.35
2022-08-20T00:46:51.818Z,19.25
2022-08-20T00:49:28.560Z,18.27
2022-08-20T00:52:14.650Z,12.95
2022-08-20T00:54:53.202Z,12.45
2022-08-20T00:57:50.655Z,18.30
2022-08-20T01:00:35.070Z,11.20
2022-08-20T01:03:02.823Z,11.15
2022-08-20T01:05:30.877Z,15.88
2022-08-20T01:07:58.846Z,12.18
2022-08-20T01:10:34.744Z,8.98
2022-08-20T01:13:11.119Z,11.48
2022-08-20T01:15:43.932Z,19.20
2022-08-20T01:18:21.457Z,17.85
2022-08-20T01:21:09.786Z,13.65
2022-08-20T01:24:04.209Z,11.38
2022-08-20T01:26:42.677Z,16.50
2022-08-20T01:29:22.956Z,10.23
2022-08-20T01:31:51.258Z,10.90
2022-08-20T01:34:20.743Z,13.45
2022-08-20T01:36:57.456Z,13.57
2022-08-20T01:39:32.170Z,12.88
2022-08-20T01:42:27.420Z,10.73
2022-08-20T01:44:55.267Z,15.25
2022-08-20T01:47:31.457Z,10.23
2022-08-20T01:50:23.682Z,13.65
2022-08-20T01:53:08.830Z,12.32
2022-08-20T01:55:38.236Z,8.77
2022-08-20T01:58:06.195Z,13.60
2022-08-20T02:00:35.739Z,14.82
2022-08-20T02:03:04.600Z,12.65
2022-08-20T02:05:35.948Z,12.68
2022-08-20T02:08:04.715Z,10.73
2022-08-20T02:13:17.897Z,16.30
2022-08-20T02:15:45.591Z,14.93
2022-08-20T02:18:15.772Z,16.42
2022-08-20T02:20:44.913Z,14.52
2022-08-20T02:23:13.245Z,15.00
2022-08-20T02:25:43.668Z,18.27
2022-08-20T02:28:15.784Z,16.10
2022-08-20T02:30:49.881Z,13.88
2022-08-20T02:33:20.807Z,15.35
2022-08-20T02:35:56.923Z,12.95
2022-08-20T02:38:25.380Z,12.88
2022-08-20T02:40:53.378Z,14.30
2022-08-20T02:43:21.716Z,13.05
2022-08-20T02:45:49.658Z,15.38
2022-08-20T02:48:21.571Z,14.85
2022-08-20T02:50:58.789Z,12.82
2022-08-20T02:53:29.317Z,12.43
2022-08-20T02:55:57.664Z,13.60
2022-08-20T02:58:25.896Z,16.70
2022-08-20T03:00:54.171Z,11.20
2022-08-20T03:03:22.901Z,17.10
2022-08-20T03:05:57.243Z,13.57
2022-08-20T03:08:27.247Z,12.05
2022-08-20T03:10:55.933Z,11.98
2022-08-20T03:13:24.287Z,16.77
2022-08-20T03:15:59.026Z,11.27
2022-08-20T03:18:33.046Z,19.42
2022-08-20T03:21:01.869Z,15.52
2022-08-20T03:23:30.068Z,17.35
2022-08-20T03:25:58.536Z,17.27
2022-08-20T03:28:27.424Z,14.52
2022-08-20T03:30:58.018Z,19.67
2022-08-20T03:33:28.016Z,16.58
2022-08-20T03:35:56.211Z,18.00
2022-08-20T03:38:32.475Z,15.90
2022-08-20T03:41:03.206Z,13.45
2022-08-20T03:43:31.761Z,16.80
2022-08-20T03:46:00.374Z,15.93
2022-08-20T03:48:28.424Z,19.50
2022-08-20T03:50:57.640Z,14.27
2022-08-20T03:53:25.386Z,14.32
2022-08-20T03:55:56.450Z,16.67
2022-08-20T03:58:35.270Z,18.00
2022-08-20T04:01:07.275Z,14.23
2022-08-20T04:03:36.738Z,17.40
2022-08-20T04:06:04.680Z,12.57
2022-08-20T04:08:32.400Z,20.02
2022-08-20T04:11:00.338Z,15.15
2022-08-20T04:13:30.479Z,15.02
2022-08-20T04:16:01.051Z,13.45
2022-08-20T04:18:28.761Z,14.50
2022-08-20T04:20:56.472Z,19.83
2022-08-20T04:23:24.287Z,13.98
2022-08-20T04:25:52.021Z,16.23
2022-08-20T04:28:27.048Z,20.48
2022-08-20T04:30:58.878Z,17.15
2022-08-20T04:33:33.603Z,17.02
2022-08-20T04:36:06.250Z,15.63
2022-08-20T04:38:47.757Z,16.13
2022-08-20T04:41:23.663Z,15.95
2022-08-20T04:43:55.213Z,15.43
2022-08-20T04:46:28.858Z,19.63
2022-08-20T04:48:57.964Z,16.13
2022-08-20T04:51:26.926Z,16.98
2022-08-20T04:53:56.578Z,17.52
2022-08-20T04:56:29.156Z,18.20
2022-08-20T04:59:01.556Z,12.20
2022-08-20T05:01:29.996Z,20.08
2022-08-20T05:03:58.350Z,14.25
2022-08-20T05:06:32.185Z,15.68
2022-08-20T05:09:01.157Z,11.48
2022-08-20T05:11:34.584Z,16.70
2022-08-20T05:14:09.598Z,15.25
2022-08-20T05:16:39.506Z,13.45
2022-08-20T05:19:12.852Z,14.43
2022-08-20T05:21:41.310Z,17.35
2022-08-20T05:24:10.378Z,21.42
2022-08-20T05:26:38.314Z,25.20
2022-08-20T05:29:07.544Z,25.25
2022-08-20T05:31:35.727Z,20.45
2022-08-20T05:34:12.438Z,16.23
2022-08-20T05:36:49.559Z,18.50
2022-08-20T05:39:21.434Z,13.65
2022-08-20T05:41:50.911Z,13.68
2022-08-20T05:44:20.023Z,18.50
2022-08-20T05:46:48.527Z,17.67
2022-08-20T05:49:21.672Z,19.38
2022-08-20T05:51:53.870Z,15.13
2022-08-20T05:54:23.864Z,19.63
2022-08-20T05:56:51.738Z,21.35
2022-08-20T05:59:24.011Z,21.70
2022-08-20T06:01:52.998Z,19.67
2022-08-20T06:04:32.090Z,18.95
2022-08-20T06:07:07.280Z,18.83
2022-08-20T06:09:36.397Z,16.40
2022-08-20T06:12:07.808Z,15.30
2022-08-20T06:14:36.051Z,18.73
2022-08-20T06:17:18.629Z,17.00
2022-08-20T06:19:50.213Z,15.80
2022-08-20T06:22:22.855Z,13.27
2022-08-20T06:24:56.151Z,18.70
2022-08-20T06:27:24.401Z,22.45
2022-08-20T06:29:53.448Z,23.25
2022-08-20T06:32:31.810Z,22.15
2022-08-20T06:35:08.799Z,17.33
2022-08-20T06:37:39.780Z,22.40
2022-08-20T06:40:13.949Z,27.67
2022-08-20T06:42:47.871Z,17.83
2022-08-20T06:45:27.491Z,17.70
2022-08-20T06:48:01.209Z,17.42
2022-08-20T06:50:43.143Z,20.42
2022-08-20T06:53:19.372Z,19.02
2022-08-20T06:55:54.592Z,18.83
2022-08-20T06:58:36.126Z,16.67
2022-08-20T07:01:09.552Z,18.13
2022-08-20T07:03:55.562Z,18.85
2022-08-20T07:06:26.184Z,15.82
2022-08-20T07:08:55.855Z,16.42
2022-08-20T07:11:28.005Z,16.13
2022-08-20T07:13:59.581Z,16.75
2022-08-20T07:16:28.054Z,17.80
2022-08-20T07:18:56.207Z,16.38
2022-08-20T07:21:24.686Z,16.65
2022-08-20T07:23:53.164Z,20.33
2022-08-20T07:26:20.881Z,15.15
2022-08-20T07:28:49.108Z,15.07
2022-08-20T07:31:35.855Z,16.17
2022-08-20T07:34:04.472Z,19.95
2022-08-20T07:36:32.618Z,19.75
2022-08-20T07:39:05.946Z,25.25
2022-08-20T07:41:34.513Z,15.23
2022-08-20T07:44:02.826Z,16.52
2022-08-20T07:46:31.623Z,18.20
2022-08-20T07:48:59.929Z,18.90
2022-08-20T07:51:28.701Z,19.38
2022-08-20T07:53:58.454Z,20.13
2022-08-20T07:56:27.959Z,17.15
2022-08-20T07:58:59.271Z,18.95
2022-08-20T08:01:31.438Z,15.35
2022-08-20T08:04:00.736Z,23.95
2022-08-20T08:06:31.596Z,21.88
2022-08-20T08:09:08.414Z,31.27
2022-08-20T08:11:46.342Z,25.40
2022-08-20T08:14:26.815Z,30.67
2022-08-20T08:17:00.071Z,26.00
2022-08-20T08:19:38.836Z,24.15
2022-08-20T08:22:12.294Z,29.48
2022-08-20T08:24:57.263Z,22.15
2022-08-20T08:27:25.979Z,25.35
2022-08-20T08:29:54.634Z,24.55
2022-08-20T08:32:22.427Z,24.38
2022-08-20T08:34:50.148Z,20.08
2022-08-20T08:37:17.892Z,21.05
2022-08-20T08:39:45.818Z,19.20
2022-08-20T08:42:37.078Z,25.55
2022-08-20T08:45:10.793Z,26.17
2022-08-20T08:47:41.303Z,26.35
2022-08-20T08:50:50.181Z,23.38
2022-08-20T08:53:30.755Z,21.23
2022-08-20T08:55:59.992Z,19.80
2022-08-20T08:58:28.145Z,23.00
2022-08-20T09:00:55.874Z,24.90
2022-08-20T09:03:31.563Z,21.27
2022-08-20T09:06:02.504Z,25.75
2022-08-20T09:08:40.190Z,23.15
2022-08-20T09:11:09.565Z,24.25
2022-08-20T09:13:37.809Z,21.88
2022-08-20T09:16:06.175Z,20.83
2022-08-20T09:18:33.962Z,19.50
2022-08-20T09:21:01.795Z,18.15
2022-08-20T09:23:29.639Z,16.05
2022-08-20T09:25:57.840Z,17.35
2022-08-20T09:28:25.680Z,18.05
2022-08-20T09:31:00.366Z,21.25
2022-08-20T09:33:28.100Z,15.80
2022-08-20T09:35:55.882Z,20.60
2022-08-20T09:38:23.626Z,19.20
2022-08-20T09:40:51.399Z,17.13
2022-08-20T09:43:19.270Z,16.17
2022-08-20T09:45:46.959Z,17.45
2022-08-20T09:48:14.638Z,23.83
2022-08-20T09:50:48.618Z,18.27
2022-08-20T09:53:19.967Z,25.13
2022-08-20T09:55:53.798Z,19.42
2022-08-20T09:58:26.172Z,20.58
2022-08-20T10:00:53.976Z,17.25
2022-08-20T10:03:21.749Z,23.90
2022-08-20T10:05:49.483Z,17.45
2022-08-20T10:08:18.221Z,19.38
2022-08-20T10:10:45.969Z,20.20
2022-08-20T10:13:15.348Z,20.15
2022-08-20T10:15:43.497Z,20.70
2022-08-20T10:18:12.465Z,23.00
2022-08-20T10:20:40.752Z,22.50
2022-08-20T10:23:08.909Z,22.38
2022-08-20T10:25:37.096Z,19.70
2022-08-20T10:28:05.939Z,22.70
2022-08-20T10:30:35.318Z,23.73
2022-08-20T10:33:03.288Z,19.55
2022-08-20T10:35:31.307Z,19.73
2022-08-20T10:37:59.105Z,20.02
2022-08-20T10:40:27.155Z,18.85
2022-08-20T10:42:54.885Z,20.27
2022-08-20T10:45:22.576Z,19.15
2022-08-20T10:47:50.764Z,22.55
2022-08-20T10:50:20.148Z,16.80
2022-08-20T10:52:48.136Z,18.23
2022-08-20T10:55:16.549Z,18.75
2022-08-20T10:57:45.006Z,16.38
2022-08-20T11:00:17.279Z,12.20
2022-08-20T11:02:45.536Z,16.98
2022-08-20T11:05:13.800Z,22.23
2022-08-20T11:07:49.808Z,17.02
2022-08-20T11:10:27.924Z,18.08
2022-08-20T11:12:56.130Z,19.65
2022-08-20T11:15:24.523Z,14.10
2022-08-20T11:17:53.307Z,19.23
2022-08-20T11:20:26.106Z,19.33
2022-08-20T11:22:54.991Z,19.00
2022-08-20T11:25:22.792Z,19.48
2022-08-20T11:27:53.824Z,21.13
2022-08-20T11:30:35.889Z,17.45
2022-08-20T11:33:05.517Z,19.48
2022-08-20T11:35:48.094Z,17.02
2022-08-20T11:38:19.700Z,17.33
2022-08-20T11:40:48.759Z,20.60
2022-08-20T11:43:17.759Z,18.73
2022-08-20T11:45:50.024Z,20.13
2022-08-20T11:48:18.579Z,19.83
2022-08-20T11:50:47.528Z,18.88
2022-08-20T11:53:15.923Z,26.33
2022-08-20T11:55:44.721Z,25.23
2022-08-20T12:00:41.523Z,21.45
2022-08-20T12:03:11.643Z,27.20
2022-08-20T12:05:44.898Z,22.83
2022-08-20T12:08:26.893Z,20.73
2022-08-20T12:11:00.042Z,20.30
2022-08-20T12:13:47.959Z,24.40
2022-08-20T12:16:19.493Z,22.02
2022-08-20T12:18:48.944Z,20.48
2022-08-20T12:21:17.152Z,18.42
2022-08-20T12:23:45.415Z,22.15
2022-08-20T12:26:13.603Z,18.23
2022-08-20T12:28:41.329Z,22.00
2022-08-20T12:31:09.220Z,20.02
2022-08-20T12:33:37.185Z,20.65
2022-08-20T12:36:05.189Z,20.90
2022-08-20T12:38:33.079Z,20.35
2022-08-20T12:41:01.282Z,23.65
2022-08-20T12:43:29.082Z,26.38
2022-08-20T12:45:56.863Z,25.50
2022-08-20T12:48:24.802Z,24.35
2022-08-20T12:50:52.941Z,23.30
2022-08-20T12:53:20.753Z,41.45
2022-08-20T12:55:48.571Z,28.73
2022-08-20T12:58:16.424Z,30.45
2022-08-20T13:00:48.629Z,28.60
2022-08-20T13:03:20.954Z,25.70
2022-08-20T13:05:50.112Z,23.65
2022-08-20T13:08:19.383Z,25.17
2022-08-20T13:10:47.694Z,27.77
2022-08-20T13:13:20.879Z,26.55
2022-08-20T13:15:50.990Z,31.05
2022-08-20T13:18:20.455Z,22.25
2022-08-20T13:20:49.719Z,24.15
2022-08-20T13:23:17.937Z,24.27
2022-08-20T13:25:45.646Z,27.88
2022-08-20T13:28:13.377Z,24.52
2022-08-20T13:30:41.581Z,23.55
2022-08-20T13:33:10.092Z,27.38
2022-08-20T13:35:37.903Z,22.13
2022-08-20T13:38:06.025Z,27.48
2022-08-20T13:40:33.829Z,26.27
2022-08-20T13:43:06.818Z,29.15
2022-08-20T13:45:37.216Z,26.73
2022-08-20T13:50:38.035Z,23.67
2022-08-20T13:53:05.786Z,21.90
2022-08-20T13:55:38.581Z,25.90
2022-08-20T13:58:08.234Z,24.30
2022-08-20T14:00:36.841Z,24.88
2022-08-20T14:03:06.667Z,25.50
2022-08-20T14:08:14.645Z,26.42
2022-08-20T14:10:44.367Z,20.88
2022-08-20T14:13:15.893Z,22.40
2022-08-20T14:15:45.066Z,28.77
2022-08-20T14:18:14.833Z,26.92
2022-08-20T14:20:45.367Z,26.05
2022-08-20T14:23:15.095Z,27.30
2022-08-20T14:25:47.655Z,24.65
2022-08-20T14:28:26.060Z,24.83
2022-08-20T14:30:54.900Z,22.23
2022-08-20T14:33:24.695Z,22.88
2022-08-20T14:35:54.576Z,30.17
2022-08-20T14:38:23.006Z,32.60
2022-08-20T14:40:50.866Z,24.83
2022-08-20T14:43:19.594Z,27.55
2022-08-20T14:45:47.334Z,25.33
2022-08-20T14:48:15.428Z,28.23
2022-08-20T14:50:43.390Z,26.45
2022-08-20T14:53:11.149Z,27.20
2022-08-20T14:55:39.783Z,25.30
2022-08-20T14:58:13.761Z,24.15
2022-08-20T15:00:43.128Z,25.40
2022-08-20T15:03:11.136Z,25.10
2022-08-20T15:05:39.572Z,24.58
2022-08-20T15:08:10.651Z,26.58
2022-08-20T15:10:39.762Z,25.13
2022-08-20T15:13:09.967Z,23.95
2022-08-20T15:15:39.427Z,27.42
2022-08-20T15:18:07.958Z,26.70
2022-08-20T15:20:39.939Z,27.92
2022-08-20T15:23:07.907Z,23.60
2022-08-20T15:25:38.069Z,34.30
2022-08-20T15:28:09.490Z,25.00
2022-08-20T15:30:41.194Z,29.65
2022-08-20T15:33:11.193Z,25.02
2022-08-20T15:35:39.228Z,23.48
2022-08-20T15:38:07.615Z,24.75
2022-08-20T15:40:35.653Z,32.42
2022-08-20T15:43:05.770Z,26.33
2022-08-20T15:45:35.966Z,26.00
2022-08-20T15:48:16.697Z,28.52
2022-08-20T15:51:11.986Z,25.92
2022-08-20T15:54:10.291Z,26.10
2022-08-20T15:56:53.513Z,23.90
2022-08-20T15:59:47.266Z,24.10
2022-08-20T16:03:06.304Z,24.83
2022-08-20T16:05:54.772Z,23.75
2022-08-20T16:08:51.634Z,25.10
2022-08-20T16:12:00.901Z,28.58
2022-08-20T16:14:36.496Z,28.52
2022-08-20T16:17:17.882Z,26.08
2022-08-20T16:20:22.268Z,28.05
2022-08-20T16:22:53.363Z,30.55
2022-08-20T16:25:24.646Z,25.45
2022-08-20T16:28:16.720Z,24.80
2022-08-20T16:30:50.299Z,26.65
2022-08-20T16:33:46.506Z,31.90
2022-08-20T16:36:34.725Z,28.80
2022-08-20T16:39:08.685Z,25.35
2022-08-20T16:41:41.912Z,27.10
2022-08-20T16:44:35.259Z,25.95
2022-08-20T16:47:22.199Z,24.45
2022-08-20T16:49:58.385Z,25.85
2022-08-20T16:52:26.473Z,31.10
2022-08-20T16:54:54.356Z,26.05
2022-08-20T16:57:22.365Z,24.40
2022-08-20T17:00:05.417Z,28.67
2022-08-20T17:02:33.259Z,22.77
2022-08-20T17:05:04.773Z,32.15
2022-08-20T17:07:51.323Z,27.58
2022-08-20T17:10:26.817Z,28.58
2022-08-20T17:13:00.036Z,32.85
2022-08-20T17:15:34.172Z,33.05
2022-08-20T17:18:26.512Z,32.65
2022-08-20T17:21:00.840Z,30.92
2022-08-20T17:23:40.645Z,24.88
2022-08-20T17:26:29.731Z,29.80
2022-08-20T17:29:21.257Z,30.85
2022-08-20T17:32:10.202Z,29.88
2022-08-20T17:34:49.884Z,27.55
2022-08-20T17:37:39.309Z,26.20
2022-08-20T17:40:18.779Z,31.27
2022-08-20T17:42:56.918Z,29.50
2022-08-20T17:45:41.356Z,31.50
2022-08-20T17:48:20.684Z,27.08
2022-08-20T17:50:50.052Z,26.88
2022-08-20T17:53:25.892Z,25.05
2022-08-20T17:56:01.330Z,25.30
2022-08-20T17:58:54.201Z,28.88
2022-08-20T18:01:25.918Z,26.35
2022-08-20T18:03:54.450Z,29.02
2022-08-20T18:07:18.185Z,31.05
2022-08-20T18:10:11.789Z,27.60
2022-08-20T18:13:25.180Z,26.15
2022-08-20T18:16:01.177Z,24.77
2022-08-20T18:18:57.114Z,27.52
2022-08-20T18:22:06.006Z,28.13
2022-08-20T18:25:08.857Z,27.17
2022-08-20T18:27:44.663Z,26.85
2022-08-20T18:30:22.727Z,28.45
2022-08-20T18:33:07.563Z,29.15
2022-08-20T18:35:39.111Z,27.23
2022-08-20T18:38:22.638Z,28.38
2022-08-20T18:40:55.071Z,31.83
2022-08-20T18:43:30.635Z,30.83
2022-08-20T18:46:23.562Z,27.40
2022-08-20T18:49:05.346Z,26.38
2022-08-20T18:51:50.684Z,26.42
2022-08-20T18:54:32.719Z,26.02
2022-08-20T18:57:18.289Z,26.42
2022-08-20T19:00:19.482Z,25.63
2022-08-20T19:03:37.495Z,24.15
2022-08-20T19:06:39.263Z,29.42
2022-08-20T19:09:50.209Z,21.42
2022-08-20T19:12:42.009Z,25.50
2022-08-20T19:15:19.043Z,28.27
2022-08-20T19:18:24.910Z,29.30
2022-08-20T19:21:00.276Z,28.63
2022-08-20T19:23:35.708Z,28.45
2022-08-20T19:26:25.773Z,24.83
2022-08-20T19:29:02.333Z,28.67
2022-08-20T19:31:35.196Z,25.77
2022-08-20T19:34:19.924Z,24.10
2022-08-20T19:37:27.362Z,29.20
2022-08-20T19:39:55.753Z,23.98
2022-08-20T19:42:32.144Z,26.20
2022-08-20T19:45:17.243Z,28.42
2022-08-20T19:48:10.538Z,29.55
2022-08-20T19:50:50.656Z,27.27
2022-08-20T19:53:33.372Z,32.95
2022-08-20T19:56:14.854Z,27.67
2022-08-20T19:58:43.404Z,28.95
2022-08-20T20:01:19.424Z,30.52
2022-08-20T20:04:16.549Z,31.27
2022-08-20T20:06:48.390Z,27.23
2022-08-20T20:09:28.083Z,23.50
2022-08-20T20:11:57.291Z,29.20
2022-08-20T20:14:37.452Z,24.35
2022-08-20T20:17:08.717Z,27.48
2022-08-20T20:20:02.307Z,24.83
2022-08-20T20:22:35.502Z,29.02
2022-08-20T20:25:33.781Z,26.65
2022-08-20T20:28:41.807Z,26.48
2022-08-20T20:31:28.494Z,27.42
2022-08-20T20:34:09.152Z,23.77
2022-08-20T20:36:45.139Z,27.20
2022-08-20T20:39:40.587Z,23.98
2022-08-20T20:42:25.645Z,27.60
2022-08-20T20:44:54.465Z,28.23
2022-08-20T20:47:35.959Z,27.35
2022-08-20T20:50:11.117Z,30.60
2022-08-20T20:52:55.703Z,29.20
2022-08-20T20:55:33.794Z,22.80
2022-08-20T20:58:03.179Z,24.90
2022-08-20T21:00:34.278Z,23.95
2022-08-20T21:03:04.587Z,29.58
2022-08-20T21:05:33.317Z,25.52
2022-08-20T21:08:06.125Z,24.85
2022-08-20T21:10:38.380Z,26.50
2022-08-20T21:13:09.004Z,24.67
2022-08-20T21:15:39.214Z,31.20
2022-08-20T21:18:09.289Z,33.75
2022-08-20T21:20:37.732Z,27.95
2022-08-20T21:23:06.177Z,35.13
2022-08-20T21:25:35.487Z,28.75
2022-08-20T21:28:04.307Z,27.27
2022-08-20T21:30:32.473Z,16.88
2022-08-20T21:33:00.777Z,6.97
2022-08-20T21:35:28.588Z,5.47
2022-08-20T21:37:56.277Z,3.95
2022-08-20T21:40:24.137Z,5.50
2022-08-20T21:42:56.684Z,5.38
2022-08-20T21:45:28.360Z,3.60
2022-08-20T21:47:57.771Z,3.92
2022-08-20T21:50:26.500Z,5.38
2022-08-20T21:52:59.504Z,3.83
2022-08-20T21:55:39.213Z,5.45
2022-08-20T21:58:08.860Z,3.50
2022-08-20T22:00:58.931Z,4.47
2022-08-20T22:03:35.029Z,5.72
2022-08-20T22:06:09.706Z,5.47
2022-08-20T22:08:37.926Z,6.40
2022-08-20T22:11:08.128Z,6.60
2022-08-20T22:13:36.508Z,5.05
2022-08-20T22:16:09.003Z,5.57
2022-08-20T22:18:37.482Z,6.82
2022-08-20T22:21:13.962Z,4.50
2022-08-20T22:23:42.042Z,4.78
2022-08-20T22:26:10.066Z,4.93
2022-08-20T22:28:38.709Z,6.57
2022-08-20T22:31:07.654Z,10.07
2022-08-20T22:33:36.138Z,5.07
2022-08-20T22:36:06.356Z,4.47
2022-08-20T22:38:34.223Z,5.82
2022-08-20T22:41:06.320Z,7.53
2022-08-20T22:43:37.108Z,5.85
2022-08-20T22:46:31.664Z,4.85
2022-08-20T22:48:59.756Z,6.00
2022-08-20T22:51:34.838Z,6.25
2022-08-20T22:54:06.121Z,6.35
2022-08-20T22:56:33.891Z,3.95
2022-08-20T22:59:04.227Z,4.00
2022-08-20T23:01:32.038Z,4.75
2022-08-20T23:04:34.231Z,5.57
2022-08-20T23:07:09.618Z,3.22
2022-08-20T23:09:42.185Z,5.25
2022-08-20T23:12:10.635Z,6.72
2022-08-20T23:14:38.582Z,5.15
2022-08-20T23:17:14.442Z,4.07
2022-08-20T23:19:43.069Z,4.60
2022-08-20T23:22:11.562Z,4.80
2022-08-20T23:24:39.590Z,3.72
2022-08-20T23:27:11.810Z,4.15
2022-08-20T23:29:39.726Z,4.95
2022-08-20T23:32:07.550Z,4.03
2022-08-20T23:34:35.231Z,5.35
2022-08-20T23:37:05.161Z,4.78
2022-08-20T23:39:33.896Z,4.60
2022-08-20T23:42:02.504Z,4.72
2022-08-20T23:44:30.462Z,2.95
2022-08-20T23:47:02.565Z,4.38
2022-08-20T23:49:32.324Z,4.32
2022-08-20T23:52:00.848Z,3.95
2022-08-20T23:54:32.987Z,6.90
2022-08-20T23:57:00.771Z,3.65
2022-08-20T23:59:28.561Z,3.55
